Time;durP1;ratioP1;P1;durP2;ratioP2;P2;SDS_P1;SDS_P2;PMS_P1;PMS_P2;Temp;Humidity;BMP_temperature;BMP_pressure;BME280_temperature;BME280_humidity;BME280_pressure;Samples;Min_cycle;Max_cycle;Signal;HPM_P1;HPM_P2
2022/02/02 00:01:15;;;;;;;10.20;3.60;;;8.80;80.50;;;;;;5000791;28;20452;-48
2022/02/02 00:03:48;;;;;;;9.30;3.30;;;8.80;79.90;;;;;;4994915;28;20489;-47
2022/02/02 00:06:21;;;;;;;13.17;3.60;;;8.80;80.10;;;;;;5010704;28;20474;-49
2022/02/02 00:14:18;;;;;;;12.43;6.13;;;8.80;80.40;;;;;;4996645;28;20526;-49
2022/02/02 00:16:53;;;;;;;15.30;3.40;;;8.80;80.40;;;;;;4992598;28;20481;-48
2022/02/02 00:19:38;;;;;;;8.13;3.10;;;8.90;80.10;;;;;;4998344;28;20481;-50
2022/02/02 00:22:15;;;;;;;14.03;3.77;;;8.90;80.40;;;;;;5027033;28;20766;-49
2022/02/02 00:27:18;;;;;;;11.40;3.83;;;8.90;80.30;;;;;;4999977;28;20461;-49
2022/02/02 00:29:56;;;;;;;13.03;4.20;;;8.90;80.30;;;;;;4997728;28;20465;-50
2022/02/02 00:34:55;;;;;;;12.27;3.30;;;8.90;80.70;;;;;;4999550;28;20477;-48
2022/02/02 00:37:22;;;;;;;11.13;3.93;;;8.90;80.50;;;;;;4997898;28;20560;-49
2022/02/02 00:39:49;;;;;;;12.47;3.63;;;8.90;80.30;;;;;;5001443;28;20465;-49
2022/02/02 00:42:16;;;;;;;10.00;4.60;;;8.80;79.90;;;;;;4994102;28;20453;-50
2022/02/02 00:44:47;;;;;;;9.73;3.50;;;8.90;79.20;;;;;;5000847;28;20461;-49
2022/02/02 00:47:21;;;;;;;10.13;3.60;;;8.80;79.10;;;;;;5002823;28;20459;-50
2022/02/02 00:49:49;;;;;;;14.60;3.17;;;8.80;79.30;;;;;;4999508;28;20538;-49
2022/02/02 00:52:16;;;;;;;10.97;4.43;;;8.80;79.40;;;;;;4999471;28;20468;-50
2022/02/02 00:54:43;;;;;;;14.33;3.47;;;8.80;79.70;;;;;;4999278;28;20480;-50
2022/02/02 00:57:10;;;;;;;11.47;3.20;;;8.80;79.50;;;;;;4996211;28;20494;-49
2022/02/02 00:59:36;;;;;;;11.17;3.93;;;8.80;79.70;;;;;;4994286;28;20461;-50
2022/02/02 01:02:03;;;;;;;7.90;3.13;;;8.80;80.00;;;;;;4995775;28;20458;-50
2022/02/02 01:04:30;;;;;;;14.30;3.03;;;8.90;79.90;;;;;;4999533;28;20488;-49
2022/02/02 01:07:15;;;;;;;7.60;3.47;;;8.80;80.10;;;;;;4998251;28;20557;-50
2022/02/02 01:09:51;;;;;;;11.90;3.37;;;8.80;80.40;;;;;;4996345;28;20472;-49
2022/02/02 01:20:15;;;;;;;8.37;3.80;;;8.80;80.20;;;;;;4999917;28;20485;-50
2022/02/02 01:28:13;;;;;;;11.50;3.07;;;8.70;79.50;;;;;;5003534;28;20465;-49
2022/02/02 01:30:40;;;;;;;10.27;3.30;;;8.80;79.20;;;;;;4995825;28;20517;-49
2022/02/02 01:33:07;;;;;;;15.03;3.70;;;8.70;79.30;;;;;;4998625;28;20507;-49
2022/02/02 01:35:34;;;;;;;16.60;4.37;;;8.70;79.40;;;;;;5027993;28;20553;-49
2022/02/02 01:38:01;;;;;;;11.00;3.70;;;8.70;79.50;;;;;;5004367;28;20454;-49
2022/02/02 01:40:33;;;;;;;13.90;3.57;;;8.70;79.60;;;;;;5014203;28;20825;-49
2022/02/02 01:43:05;;;;;;;15.63;4.00;;;8.60;79.70;;;;;;5002417;28;20471;-49
2022/02/02 01:45:46;;;;;;;16.23;3.63;;;8.60;79.80;;;;;;5001119;28;20809;-48
2022/02/02 01:55:51;;;;;;;11.70;3.80;;;8.60;79.40;;;;;;4996366;28;20479;-49
2022/02/02 02:01:04;;;;;;;14.30;3.90;;;8.70;79.40;;;;;;5002869;28;20993;-50
2022/02/02 02:03:31;;;;;;;9.20;3.33;;;8.70;79.40;;;;;;4999575;28;20477;-49
2022/02/02 02:05:58;;;;;;;14.07;3.50;;;8.70;79.40;;;;;;5003328;28;20465;-49
2022/02/02 02:08:26;;;;;;;10.00;4.07;;;8.60;79.40;;;;;;5005038;28;20462;-49
2022/02/02 02:10:53;;;;;;;7.90;3.40;;;8.60;79.40;;;;;;5005252;28;20536;-49
2022/02/02 02:15:50;;;;;;;12.43;3.77;;;8.50;79.70;;;;;;4996787;28;20466;-49
2022/02/02 02:18:17;;;;;;;15.20;3.60;;;8.60;80.00;;;;;;4999089;28;20468;-49
2022/02/02 02:20:44;;;;;;;9.80;3.77;;;8.50;80.30;;;;;;5002379;28;20462;-48
2022/02/02 02:23:11;;;;;;;11.40;3.07;;;8.40;81.10;;;;;;4999823;28;20492;-48
2022/02/02 02:25:41;;;;;;;13.23;4.00;;;8.50;81.90;;;;;;4999171;28;20700;-49
2022/02/02 02:28:34;;;;;;;12.40;3.07;;;8.40;81.90;;;;;;5001371;28;20538;-49
2022/02/02 02:31:09;;;;;;;17.37;3.90;;;8.40;81.90;;;;;;4998363;28;20454;-48
2022/02/02 02:39:22;;;;;;;13.17;4.63;;;8.50;80.50;;;;;;4999865;28;20456;-49
2022/02/02 03:53:18;;;;;;;12.23;3.20;;;8.40;80.70;;;;;;4984553;28;20480;-46
2022/02/02 03:58:20;;;;;;;12.87;4.50;;;8.30;81.00;;;;;;4982763;28;20489;-46
2022/02/02 04:03:48;;;;;;;10.33;4.20;;;8.20;81.70;;;;;;4981672;28;20503;-46
2022/02/02 04:06:22;;;;;;;24.90;4.57;;;8.20;82.00;;;;;;4980227;28;20457;-46
2022/02/02 04:08:49;;;;;;;12.40;4.23;;;8.20;81.90;;;;;;4977203;28;20838;-46
2022/02/02 04:11:55;;;;;;;18.03;4.40;;;8.20;81.30;;;;;;4984283;28;20454;-46
2022/02/02 05:08:26;;;;;;;13.97;5.80;;;8.30;78.90;;;;;;4981905;28;20542;-50
2022/02/02 05:49:00;;;;;;;15.50;5.43;;;8.40;77.70;;;;;;4979992;28;20554;-50
2022/02/02 05:51:23;;;;;;;29.17;6.40;;;8.40;77.60;;;;;;4984528;28;20457;-50
2022/02/02 05:53:52;;;;;;;13.63;6.37;;;8.40;77.60;;;;;;4981038;28;20473;-51
2022/02/02 05:56:18;;;;;;;13.87;4.70;;;8.40;77.70;;;;;;4982956;28;20533;-50
2022/02/02 05:58:47;;;;;;;15.60;4.87;;;8.40;77.60;;;;;;4986500;28;20536;-50
2022/02/02 06:01:15;;;;;;;14.93;3.87;;;8.40;77.90;;;;;;4983976;28;20457;-50
2022/02/02 06:03:46;;;;;;;14.23;5.20;;;8.40;77.50;;;;;;4980856;28;20524;-51
2022/02/02 06:06:13;;;;;;;18.40;4.27;;;8.50;77.30;;;;;;4987551;28;20462;-50
2022/02/02 06:08:45;;;;;;;13.67;5.30;;;8.50;77.30;;;;;;4987230;28;20466;-50
2022/02/02 06:11:14;;;;;;;19.83;5.20;;;8.50;77.70;;;;;;4982744;28;20465;-50
2022/02/02 06:13:45;;;;;;;13.53;4.37;;;8.50;77.10;;;;;;4985187;28;20814;-50
2022/02/02 06:16:12;;;;;;;14.53;4.30;;;8.50;76.90;;;;;;4987685;28;20461;-50
2022/02/02 06:18:39;;;;;;;13.83;4.97;;;8.50;76.40;;;;;;4989790;28;20493;-51
2022/02/02 06:21:07;;;;;;;12.63;3.70;;;8.50;76.30;;;;;;4986341;28;20481;-50
2022/02/02 06:23:42;;;;;;;12.77;3.80;;;8.50;74.90;;;;;;4981063;28;20487;-50
2022/02/02 06:26:16;;;;;;;15.13;4.07;;;8.50;75.10;;;;;;4975414;28;20436;-50
2022/02/02 06:28:45;;;;;;;13.80;4.03;;;8.60;75.10;;;;;;4994361;28;20472;-52
2022/02/02 06:31:14;;;;;;;17.10;4.60;;;8.50;74.80;;;;;;4980739;28;20465;-51
2022/02/02 06:33:54;;;;;;;13.80;4.40;;;8.50;74.70;;;;;;4987495;28;20461;-51
2022/02/02 06:36:21;;;;;;;14.00;4.07;;;8.50;75.30;;;;;;4987342;28;20930;-51
2022/02/02 06:38:48;;;;;;;18.63;4.87;;;8.50;74.70;;;;;;5015323;28;21001;-51
2022/02/02 06:41:16;;;;;;;13.73;4.33;;;8.60;74.70;;;;;;5005698;28;20462;-50
2022/02/02 06:43:44;;;;;;;14.20;4.53;;;8.50;74.60;;;;;;4985014;28;20460;-50
2022/02/02 06:46:13;;;;;;;13.17;5.87;;;8.50;74.50;;;;;;4972178;28;20464;-50
2022/02/02 06:48:39;;;;;;;13.07;4.47;;;8.50;74.50;;;;;;4990521;28;20461;-50
2022/02/02 06:51:14;;;;;;;15.37;3.60;;;8.50;74.50;;;;;;4986932;28;20461;-50
2022/02/02 06:54:15;;;;;;;13.40;4.30;;;8.60;73.90;;;;;;4987059;28;20847;-50
2022/02/02 06:56:49;;;;;;;18.33;5.80;;;8.60;73.90;;;;;;4985016;28;20479;-49
2022/02/02 07:02:59;;;;;;;9.63;4.90;;;8.50;73.90;;;;;;4998537;28;20476;-49
2022/02/02 07:10:30;;;;;;;22.73;4.30;;;8.50;73.60;;;;;;4998123;28;20462;-50
2022/02/02 07:31:33;;;;;;;13.53;4.87;;;8.50;73.50;;;;;;4999645;28;20461;-50
2022/02/02 07:34:17;;;;;;;10.60;3.80;;;8.50;73.60;;;;;;4998460;28;20474;-49
2022/02/02 07:36:54;;;;;;;13.00;3.20;;;8.50;73.70;;;;;;4999087;28;20497;-49
2022/02/02 07:39:24;;;;;;;13.67;3.93;;;8.50;73.00;;;;;;4997219;28;20844;-50
2022/02/02 07:41:57;;;;;;;11.70;3.70;;;8.50;73.60;;;;;;4997266;28;20696;-49
2022/02/02 07:44:28;;;;;;;12.07;4.30;;;8.50;73.40;;;;;;4995044;28;20459;-48
2022/02/02 07:46:59;;;;;;;11.67;3.40;;;8.50;73.60;;;;;;4997988;28;20477;-49
2022/02/02 07:49:33;;;;;;;15.13;4.47;;;8.50;73.00;;;;;;4981566;28;20484;-48
2022/02/02 07:52:00;;;;;;;11.50;4.47;;;8.60;73.40;;;;;;4980874;28;20463;-49
2022/02/02 07:54:32;;;;;;;8.90;3.40;;;8.60;73.50;;;;;;4976872;28;20458;-49
2022/02/02 07:57:19;;;;;;;11.17;3.77;;;8.60;73.50;;;;;;4981862;28;20557;-48
2022/02/02 08:02:14;;;;;;;9.23;2.90;;;8.60;73.60;;;;;;4982721;28;20966;-48
2022/02/02 08:04:41;;;;;;;11.50;3.30;;;8.70;73.50;;;;;;4982887;28;20457;-48
2022/02/02 08:07:11;;;;;;;9.93;4.43;;;8.60;73.10;;;;;;4993034;28;20589;-49
2022/02/02 08:09:48;;;;;;;17.97;3.77;;;8.60;73.10;;;;;;4976593;28;20460;-48
2022/02/02 08:12:18;;;;;;;8.10;3.10;;;8.70;73.60;;;;;;4982884;28;20461;-51
2022/02/02 08:14:53;;;;;;;10.93;3.40;;;8.70;73.30;;;;;;4997088;28;20473;-50
2022/02/02 08:17:19;;;;;;;19.27;3.87;;;8.70;73.40;;;;;;4994151;28;20549;-51
2022/02/02 08:19:46;;;;;;;13.33;3.60;;;8.70;73.40;;;;;;4992952;28;20484;-51
2022/02/02 08:22:13;;;;;;;12.37;3.50;;;8.60;73.80;;;;;;4993047;28;20511;-50
2022/02/02 08:24:40;;;;;;;15.90;4.43;;;8.70;73.80;;;;;;4986282;28;20710;-50
2022/02/02 08:27:06;;;;;;;12.53;4.37;;;8.70;73.70;;;;;;4997269;28;20454;-51
2022/02/02 08:29:33;;;;;;;17.47;4.60;;;8.70;73.70;;;;;;4988356;28;20472;-51
2022/02/02 08:32:03;;;;;;;14.17;4.50;;;8.70;73.90;;;;;;4993973;28;20469;-50
2022/02/02 08:34:29;;;;;;;17.63;4.43;;;8.70;73.90;;;;;;5023360;28;20466;-51
2022/02/02 08:36:57;;;;;;;13.60;4.77;;;8.70;73.90;;;;;;4999098;28;20524;-51
2022/02/02 08:39:59;;;;;;;14.90;5.10;;;8.70;74.10;;;;;;5025007;28;20515;-50
2022/02/02 08:42:14;;;;;;;17.33;3.77;;;8.70;74.50;;;;;;4998344;28;20456;-51
2022/02/02 08:45:01;;;;;;;23.53;4.40;;;8.80;74.40;;;;;;4985320;28;20497;-51
2022/02/02 08:47:29;;;;;;;13.33;4.23;;;8.80;74.30;;;;;;4983585;28;20457;-51
2022/02/02 08:49:58;;;;;;;10.13;3.67;;;8.80;74.30;;;;;;4986521;28;20513;-51
2022/02/02 08:52:34;;;;;;;12.40;5.63;;;8.70;74.30;;;;;;4993931;28;20461;-50
2022/02/02 08:55:36;;;;;;;11.73;3.90;;;8.70;74.70;;;;;;4978241;28;20984;-47
2022/02/02 08:58:21;;;;;;;15.60;4.63;;;8.70;75.10;;;;;;4981047;28;20529;-47
2022/02/02 09:00:50;;;;;;;14.00;4.60;;;8.70;75.60;;;;;;4979806;28;20469;-47
2022/02/02 09:06:06;;;;;;;10.60;4.33;;;8.70;75.40;;;;;;4986113;28;20461;-52
2022/02/02 09:08:34;;;;;;;16.63;3.67;;;8.70;75.70;;;;;;4993527;28;20495;-49
2022/02/02 09:35:22;;;;;;;13.97;4.57;;;9.30;73.60;;;;;;4979682;28;20473;-48
2022/02/02 09:37:48;;;;;;;8.30;3.67;;;9.30;73.60;;;;;;4976691;28;20548;-49
2022/02/02 09:43:02;;;;;;;16.17;4.50;;;9.40;71.80;;;;;;4980908;28;20457;-48
2022/02/02 09:45:33;;;;;;;12.17;4.70;;;9.40;72.10;;;;;;4979031;28;20569;-48
2022/02/02 09:48:10;;;;;;;11.47;4.70;;;9.40;72.10;;;;;;4976884;28;20467;-48
2022/02/02 09:50:49;;;;;;;12.40;4.10;;;9.40;72.30;;;;;;4983491;28;20560;-48
2022/02/02 09:53:30;;;;;;;13.50;4.63;;;9.40;72.30;;;;;;4978702;28;20463;-47
2022/02/02 09:56:20;;;;;;;9.97;5.07;;;9.40;72.30;;;;;;4982554;28;20475;-48
2022/02/02 09:59:24;;;;;;;9.83;3.90;;;9.40;72.30;;;;;;4992633;28;20500;-50
2022/02/02 10:04:44;;;;;;;11.33;3.87;;;9.60;71.20;;;;;;5000016;28;21427;-50
2022/02/02 10:15:44;;;;;;;8.70;4.17;;;9.80;69.10;;;;;;4982138;28;20473;-52
2022/02/02 10:18:18;;;;;;;9.80;3.80;;;9.80;69.00;;;;;;4985182;28;20500;-50
2022/02/02 10:20:53;;;;;;;7.10;3.67;;;9.80;69.00;;;;;;4982942;28;20457;-52
2022/02/02 10:23:34;;;;;;;6.60;3.03;;;9.80;68.90;;;;;;4982587;28;20849;-51
2022/02/02 10:26:17;;;;;;;7.77;3.20;;;9.80;67.90;;;;;;4983517;28;20837;-53
2022/02/02 10:28:46;;;;;;;9.40;4.30;;;9.90;67.00;;;;;;4982400;28;20568;-51
2022/02/02 10:31:13;;;;;;;5.87;2.80;;;10.00;68.00;;;;;;4986099;28;20472;-54
2022/02/02 10:33:40;;;;;;;10.60;3.27;;;10.10;68.70;;;;;;4983971;28;20471;-51
2022/02/02 10:36:20;;;;;;;9.10;3.60;;;10.30;68.60;;;;;;4980722;28;20480;-52
2022/02/02 10:39:01;;;;;;;8.87;4.37;;;10.40;65.50;;;;;;4980022;28;20485;-49
2022/02/02 10:41:52;;;;;;;7.77;3.20;;;10.50;65.70;;;;;;4972238;28;21365;-48
2022/02/02 10:44:38;;;;;;;7.50;3.10;;;10.50;66.30;;;;;;4985320;28;20851;-49
2022/02/02 10:47:26;;;;;;;7.50;2.97;;;10.50;65.50;;;;;;4983148;28;20560;-47
2022/02/02 10:50:41;;;;;;;9.27;3.50;;;10.50;64.90;;;;;;4983531;28;20492;-50
2022/02/02 10:53:25;;;;;;;10.13;2.67;;;10.60;64.90;;;;;;4990241;28;20492;-51
2022/02/02 10:56:02;;;;;;;7.83;2.80;;;10.50;65.40;;;;;;4992857;28;20478;-52
2022/02/02 11:01:24;;;;;;;10.60;3.00;;;10.60;64.60;;;;;;4990706;28;20445;-53
2022/02/02 11:06:41;;;;;;;9.00;2.90;;;10.50;63.80;;;;;;4988733;28;20561;-50
2022/02/02 11:09:16;;;;;;;6.50;3.00;;;10.50;63.80;;;;;;4997675;28;20489;-51
2022/02/02 11:11:51;;;;;;;8.40;3.13;;;10.50;64.00;;;;;;4989155;28;20465;-51
2022/02/02 11:14:19;;;;;;;6.93;2.90;;;10.50;63.90;;;;;;4994418;28;20492;-51
2022/02/02 11:16:53;;;;;;;7.83;2.80;;;10.50;64.10;;;;;;4999026;28;20465;-51
2022/02/02 11:19:23;;;;;;;8.27;3.37;;;10.40;64.50;;;;;;4987892;28;20515;-49
2022/02/02 11:21:49;;;;;;;6.23;3.07;;;10.40;64.90;;;;;;5006953;28;20973;-47
2022/02/02 11:24:37;;;;;;;9.63;2.93;;;10.40;65.00;;;;;;4992848;28;20468;-51
2022/02/02 11:27:04;;;;;;;7.53;2.93;;;10.30;65.40;;;;;;4966821;28;20462;-51
2022/02/02 11:29:38;;;;;;;8.83;2.70;;;10.30;65.60;;;;;;4979290;28;20473;-51
2022/02/02 11:32:08;;;;;;;5.67;2.70;;;10.30;64.50;;;;;;4982415;28;21039;-51
2022/02/02 11:34:36;;;;;;;6.70;3.40;;;10.30;64.50;;;;;;4986039;28;20472;-51
2022/02/02 11:37:04;;;;;;;9.53;3.07;;;10.30;65.00;;;;;;4985988;28;20504;-51
2022/02/02 11:39:43;;;;;;;4.10;1.83;;;10.20;65.30;;;;;;4987574;28;20863;-51
2022/02/02 11:43:00;;;;;;;7.17;3.00;;;10.20;65.50;;;;;;4983915;28;20463;-51
2022/02/02 11:45:36;;;;;;;7.27;2.53;;;10.20;66.00;;;;;;4988953;28;20821;-51
2022/02/02 11:48:09;;;;;;;8.47;3.60;;;10.20;66.10;;;;;;4984741;28;20465;-51
2022/02/02 11:50:47;;;;;;;8.07;3.30;;;10.20;66.50;;;;;;4974915;28;20673;-51
2022/02/02 11:53:48;;;;;;;9.60;4.13;;;10.20;66.60;;;;;;4983722;28;20516;-51
2022/02/02 11:56:15;;;;;;;5.90;2.70;;;10.20;66.60;;;;;;4995313;28;20479;-51
2022/02/02 11:58:43;;;;;;;11.57;3.50;;;10.20;66.60;;;;;;4982999;28;20489;-51
2022/02/02 12:01:23;;;;;;;8.23;3.20;;;10.30;66.00;;;;;;4985349;28;21021;-51
2022/02/02 12:27:53;;;;;;;8.20;3.63;;;10.30;66.90;;;;;;4978352;28;20469;-49
2022/02/02 12:56:56;;;;;;;9.73;2.80;;;10.60;67.20;;;;;;4982711;28;20487;-51
2022/02/02 13:02:07;;;;;;;7.20;2.73;;;10.80;66.60;;;;;;4974277;28;20455;-51
2022/02/02 13:04:34;;;;;;;12.23;3.33;;;10.90;66.10;;;;;;4985680;28;20470;-50
2022/02/02 13:07:19;;;;;;;11.13;3.27;;;11.00;65.60;;;;;;5006374;28;20509;-47
2022/02/02 13:09:48;;;;;;;8.37;2.83;;;11.10;64.70;;;;;;4978348;28;20993;-47
2022/02/02 13:12:35;;;;;;;10.67;2.73;;;11.20;65.10;;;;;;4979725;28;20855;-47
2022/02/02 13:27:17;;;;;;;9.97;3.40;;;10.70;66.00;;;;;;4980747;28;20981;-47
2022/02/02 13:29:24;;;;;;;18.47;4.00;;;10.50;66.60;;;;;;4978779;28;20468;-48
2022/02/02 13:32:20;;;;;;;6.33;2.77;;;10.40;67.50;;;;;;4979423;28;20468;-48
2022/02/02 13:35:12;;;;;;;9.03;3.90;;;10.40;67.10;;;;;;4975612;28;20982;-47
2022/02/02 13:37:54;;;;;;;9.13;3.53;;;10.30;67.40;;;;;;4976837;28;20469;-47
2022/02/02 13:45:48;;;;;;;9.43;3.77;;;10.30;67.60;;;;;;4982183;28;20460;-48
2022/02/02 13:54:36;;;;;;;20.10;4.07;;;10.30;67.40;;;;;;4884090;29;20491;-47
2022/02/02 13:57:07;;;;;;;14.47;3.90;;;10.40;66.70;;;;;;4880821;29;21029;-47
2022/02/02 13:59:57;;;;;;;9.67;4.40;;;10.40;67.00;;;;;;4959447;28;20503;-48
2022/02/02 14:07:48;;;;;;;11.10;3.70;;;10.30;67.70;;;;;;4985333;28;20466;-52
2022/02/02 14:10:39;;;;;;;8.40;4.50;;;10.30;67.90;;;;;;4984452;28;20466;-52
2022/02/02 14:32:43;;;;;;;8.33;3.03;;;10.60;65.40;;;;;;4977128;28;20466;-47
2022/02/02 14:35:13;;;;;;;12.70;4.43;;;10.60;65.00;;;;;;4981872;28;20465;-48
2022/02/02 14:37:46;;;;;;;8.87;3.90;;;10.60;65.00;;;;;;4990648;28;20531;-47
2022/02/02 14:40:26;;;;;;;9.47;3.17;;;10.60;65.30;;;;;;4979807;28;20489;-48
2022/02/02 14:42:56;;;;;;;6.77;3.87;;;10.60;65.80;;;;;;4976590;28;20461;-48
2022/02/02 14:45:26;;;;;;;10.03;3.13;;;10.60;65.60;;;;;;4971511;28;21454;-48
2022/02/02 14:48:01;;;;;;;8.50;3.50;;;10.70;65.90;;;;;;4981187;28;20468;-48
2022/02/02 14:50:33;;;;;;;24.47;4.23;;;10.70;65.70;;;;;;4972020;28;20462;-48
2022/02/02 15:28:20;;;;;;;11.17;3.40;;;10.30;66.90;;;;;;4994669;28;20962;-48
2022/02/02 15:31:02;;;;;;;7.67;3.13;;;10.30;67.30;;;;;;4980970;28;21006;-47
2022/02/02 15:33:31;;;;;;;12.90;3.97;;;10.20;67.60;;;;;;4981882;28;20540;-47
2022/02/02 15:36:36;;;;;;;12.83;4.27;;;10.20;67.80;;;;;;4975940;28;20484;-47
2022/02/02 15:38:49;;;;;;;12.03;4.37;;;10.20;67.30;;;;;;4984205;28;20544;-47
2022/02/02 15:41:23;;;;;;;13.23;3.80;;;10.10;67.60;;;;;;4986661;28;20520;-47
2022/02/02 16:03:03;;;;;;;12.30;4.03;;;9.70;67.70;;;;;;4983542;28;20828;-51
2022/02/02 16:05:40;;;;;;;8.43;3.57;;;9.70;67.70;;;;;;4977196;28;20466;-51
2022/02/02 16:08:09;;;;;;;14.00;4.00;;;9.70;67.90;;;;;;4986775;28;20876;-51
2022/02/02 16:13:41;;;;;;;14.97;4.47;;;9.60;67.70;;;;;;4988252;28;21066;-51
2022/02/02 16:16:15;;;;;;;12.90;4.30;;;9.50;68.10;;;;;;4985486;28;20476;-50
2022/02/02 16:18:47;;;;;;;9.97;2.70;;;9.50;68.20;;;;;;4978359;28;20464;-51
2022/02/02 16:37:34;;;;;;;5.73;3.33;;;9.20;69.70;;;;;;4980071;28;20968;-48
2022/02/02 16:40:03;;;;;;;12.50;3.30;;;9.20;70.00;;;;;;4980283;28;20485;-48
2022/02/02 16:45:16;;;;;;;10.83;3.23;;;9.10;70.20;;;;;;4999316;28;20485;-48
2022/02/02 16:47:44;;;;;;;11.10;2.70;;;9.10;70.30;;;;;;4972785;28;20463;-48
2022/02/02 16:50:21;;;;;;;9.10;3.07;;;9.10;70.30;;;;;;4981227;28;20473;-48
2022/02/02 16:52:51;;;;;;;17.07;4.27;;;9.00;70.30;;;;;;4979060;28;20550;-48
2022/02/02 16:55:32;;;;;;;8.03;2.83;;;8.90;70.50;;;;;;4990429;28;20553;-48
2022/02/02 17:24:16;;;;;;;11.37;4.07;;;8.90;70.60;;;;;;4974625;28;20460;-48
2022/02/02 17:31:29;;;;;;;8.03;4.10;;;8.60;72.10;;;;;;4980535;28;20465;-48
2022/02/02 17:34:21;;;;;;;9.93;3.97;;;8.60;72.30;;;;;;4979403;28;20462;-48
2022/02/02 17:36:56;;;;;;;9.00;5.17;;;8.50;72.40;;;;;;4982051;28;20463;-48
2022/02/02 17:39:33;;;;;;;15.03;6.40;;;8.50;72.60;;;;;;4980351;28;20848;-48
2022/02/02 18:20:25;;;;;;;23.67;8.20;;;8.00;75.00;;;;;;4984026;28;20493;-46
2022/02/02 18:23:04;;;;;;;16.73;7.93;;;8.00;75.20;;;;;;4979596;28;20918;-47
2022/02/02 18:25:45;;;;;;;9.70;5.97;;;7.90;75.50;;;;;;4977300;28;20453;-46
2022/02/02 18:28:21;;;;;;;;;;;;;;;;;;;;;
2022/02/02 18:36:20;;;;;;;12.67;5.57;;;7.80;75.90;;;;;;4982553;28;20446;-46
2022/02/02 18:54:28;;;;;;;8.40;4.67;;;7.50;76.20;;;;;;4982334;28;20477;-47
2022/02/02 18:57:20;;;;;;;10.00;4.43;;;7.50;76.30;;;;;;4981047;28;20471;-46
2022/02/02 19:40:24;;;;;;;7.77;4.47;;;7.30;78.30;;;;;;4944516;28;20550;-47
2022/02/02 19:57:23;;;;;;;12.70;5.37;;;7.50;78.60;;;;;;4981247;28;21192;-47
2022/02/02 20:03:19;;;;;;;12.30;4.93;;;7.50;78.80;;;;;;4972098;28;20493;-46
2022/02/02 20:05:36;;;;;;;13.07;5.40;;;7.50;78.80;;;;;;4982703;28;20462;-47
2022/02/02 20:10:42;;;;;;;11.43;4.70;;;7.50;78.90;;;;;;4984264;28;21081;-46
2022/02/02 20:13:10;;;;;;;10.23;5.60;;;7.50;78.90;;;;;;4982510;28;20453;-46
2022/02/02 20:15:39;;;;;;;12.07;6.83;;;7.60;78.90;;;;;;4978959;28;20476;-47
2022/02/02 20:18:10;;;;;;;10.07;5.97;;;7.60;78.90;;;;;;4981744;28;20485;-47
2022/02/02 20:20:40;;;;;;;10.40;6.73;;;7.60;78.90;;;;;;4979324;28;20481;-46
2022/02/02 20:23:08;;;;;;;13.43;6.40;;;7.60;78.90;;;;;;4978151;28;20488;-47
2022/02/02 20:25:37;;;;;;;16.33;7.63;;;7.60;78.90;;;;;;4981038;28;20461;-46
2022/02/02 20:28:06;;;;;;;13.40;7.40;;;7.70;78.90;;;;;;4980180;28;20523;-46
2022/02/02 20:30:35;;;;;;;14.10;7.30;;;7.70;79.00;;;;;;4980973;28;20464;-46
2022/02/02 20:33:03;;;;;;;14.87;7.43;;;7.70;79.00;;;;;;4978785;28;20852;-46
2022/02/02 20:35:30;;;;;;;17.27;8.23;;;7.70;79.00;;;;;;4973080;28;20457;-46
2022/02/02 20:37:57;;;;;;;11.83;8.20;;;7.70;79.10;;;;;;4980514;28;20453;-46
2022/02/02 20:40:25;;;;;;;14.20;9.30;;;7.70;79.10;;;;;;4979487;28;20457;-46
2022/02/02 21:04:32;;;;;;;11.00;8.33;;;7.60;79.50;;;;;;4984238;28;20874;-47
2022/02/02 21:07:22;;;;;;;17.80;7.93;;;7.60;79.50;;;;;;4978542;28;20479;-47
2022/02/02 21:10:00;;;;;;;18.23;9.43;;;7.60;79.50;;;;;;4976891;28;20475;-46
2022/02/02 21:15:17;;;;;;;16.60;9.10;;;7.60;79.60;;;;;;4977517;28;20464;-47
2022/02/02 21:17:43;;;;;;;11.97;8.70;;;7.50;79.70;;;;;;4977019;28;20461;-47
2022/02/02 21:20:26;;;;;;;17.97;9.17;;;7.50;79.80;;;;;;4981656;28;20988;-47
2022/02/02 21:23:01;;;;;;;19.83;10.10;;;7.50;79.90;;;;;;4979676;28;20865;-47
2022/02/02 21:28:01;;;;;;;14.00;7.67;;;7.50;80.00;;;;;;4982785;28;20480;-47
2022/02/02 21:30:30;;;;;;;15.47;9.20;;;7.50;80.10;;;;;;4977290;28;20955;-47
2022/02/02 21:32:58;;;;;;;11.73;8.60;;;7.50;80.20;;;;;;4983201;28;20464;-47
2022/02/02 21:35:24;;;;;;;17.60;8.90;;;7.50;80.40;;;;;;4979589;28;20466;-47
2022/02/02 21:37:59;;;;;;;17.70;9.13;;;7.50;80.40;;;;;;4994804;28;20882;-47
2022/02/02 21:40:28;;;;;;;17.60;8.83;;;7.50;80.40;;;;;;4978567;28;20995;-46
2022/02/02 21:42:56;;;;;;;15.73;9.53;;;7.50;80.40;;;;;;4982984;28;20498;-46
2022/02/02 21:45:27;;;;;;;13.60;9.23;;;7.50;80.50;;;;;;4984730;28;20473;-46
2022/02/02 21:47:54;;;;;;;16.87;9.30;;;7.50;80.60;;;;;;4984684;28;20456;-46
2022/02/02 21:50:21;;;;;;;18.37;9.00;;;7.50;80.70;;;;;;4983055;28;20747;-46
2022/02/02 21:52:50;;;;;;;16.53;8.57;;;7.50;80.70;;;;;;4982229;28;20462;-46
2022/02/02 21:55:17;;;;;;;12.63;9.23;;;7.50;80.90;;;;;;4983951;28;20559;-46
2022/02/02 21:57:44;;;;;;;14.80;9.37;;;7.50;81.00;;;;;;4992188;28;20457;-46
2022/02/02 22:00:13;;;;;;;12.23;8.23;;;7.50;80.90;;;;;;4986938;28;20465;-46
2022/02/02 22:02:41;;;;;;;17.97;9.50;;;7.50;81.10;;;;;;4983948;28;20476;-47
2022/02/02 22:05:09;;;;;;;17.10;9.50;;;7.60;81.00;;;;;;4983762;28;20540;-47
2022/02/02 22:07:36;;;;;;;16.03;9.57;;;7.50;81.10;;;;;;4986433;28;20438;-46
2022/02/02 22:10:06;;;;;;;15.03;8.50;;;7.50;81.10;;;;;;4980245;28;20465;-46
2022/02/02 22:12:36;;;;;;;14.43;8.20;;;7.50;81.10;;;;;;4981996;28;21007;-46
2022/02/02 22:15:07;;;;;;;16.90;9.73;;;7.50;81.10;;;;;;4984187;28;20470;-46
2022/02/02 22:17:34;;;;;;;20.30;10.07;;;7.50;81.10;;;;;;4981835;28;20554;-46
2022/02/02 22:20:06;;;;;;;18.03;8.03;;;7.50;81.10;;;;;;4985027;28;20462;-47
2022/02/02 22:22:33;;;;;;;12.23;8.17;;;7.50;81.10;;;;;;4984989;28;20500;-47
2022/02/02 22:25:01;;;;;;;18.50;8.40;;;7.50;81.00;;;;;;4987107;28;20512;-47
2022/02/02 22:27:28;;;;;;;17.30;8.17;;;7.50;80.90;;;;;;4996449;28;20495;-47
2022/02/02 22:29:56;;;;;;;12.40;7.80;;;7.50;81.00;;;;;;4978132;28;20465;-47
2022/02/02 22:32:23;;;;;;;19.47;8.73;;;7.50;81.00;;;;;;4985819;28;20829;-47
2022/02/02 22:34:50;;;;;;;22.03;9.17;;;7.60;80.90;;;;;;4983044;28;20885;-47
2022/02/02 22:37:17;;;;;;;17.67;9.93;;;7.60;80.70;;;;;;4982461;28;20480;-47
2022/02/02 22:39:46;;;;;;;14.70;10.00;;;7.60;80.40;;;;;;4989438;28;20459;-47
2022/02/02 22:42:14;;;;;;;19.03;9.57;;;7.60;80.50;;;;;;4984287;28;20493;-47
2022/02/02 22:44:42;;;;;;;14.23;8.73;;;7.60;80.70;;;;;;4981681;28;20519;-47
2022/02/02 22:47:11;;;;;;;21.97;8.90;;;7.60;80.70;;;;;;4980798;28;20454;-47
2022/02/02 22:49:40;;;;;;;13.27;8.63;;;7.60;80.80;;;;;;4980977;28;20560;-47
2022/02/02 22:52:08;;;;;;;20.70;10.23;;;7.60;80.80;;;;;;4984891;28;20466;-47
2022/02/02 22:54:37;;;;;;;18.70;10.90;;;7.60;80.80;;;;;;4981668;28;20458;-47
2022/02/02 22:57:05;;;;;;;20.93;10.20;;;7.60;80.60;;;;;;4997602;28;20480;-47
2022/02/02 22:59:32;;;;;;;21.87;11.27;;;7.50;80.60;;;;;;4980861;28;20949;-47
2022/02/02 23:02:10;;;;;;;16.33;11.20;;;7.50;81.00;;;;;;4982335;28;20489;-47
2022/02/02 23:04:36;;;;;;;17.73;12.33;;;7.50;81.10;;;;;;4983558;28;20442;-47
2022/02/02 23:07:04;;;;;;;19.23;10.73;;;7.50;81.10;;;;;;4981478;28;20884;-47
2022/02/02 23:09:33;;;;;;;22.07;11.27;;;7.50;81.20;;;;;;4987115;28;20465;-47
2022/02/02 23:12:00;;;;;;;19.80;11.10;;;7.60;81.00;;;;;;4981215;28;20469;-47
2022/02/02 23:14:33;;;;;;;20.07;11.90;;;7.60;80.80;;;;;;4982616;28;20469;-47
2022/02/02 23:17:01;;;;;;;15.83;11.23;;;7.60;80.90;;;;;;4982165;28;20466;-47
2022/02/02 23:19:27;;;;;;;19.93;11.47;;;7.60;80.80;;;;;;4980686;28;20544;-47
2022/02/02 23:21:55;;;;;;;16.20;11.50;;;7.60;80.80;;;;;;4981363;28;20489;-48
2022/02/02 23:24:23;;;;;;;20.87;12.00;;;7.60;80.90;;;;;;4984738;28;20827;-47
2022/02/02 23:26:51;;;;;;;20.13;11.60;;;7.60;81.00;;;;;;4981119;28;20453;-47
2022/02/02 23:29:18;;;;;;;15.00;10.13;;;7.60;81.00;;;;;;4978790;28;20463;-47
2022/02/02 23:31:45;;;;;;;13.03;8.60;;;7.60;80.80;;;;;;4980265;28;20461;-47
2022/02/02 23:34:15;;;;;;;18.53;10.43;;;7.50;81.00;;;;;;4981210;28;20465;-47
2022/02/02 23:36:47;;;;;;;25.97;11.80;;;7.50;81.10;;;;;;4984724;28;20466;-47
2022/02/02 23:39:19;;;;;;;21.20;11.07;;;7.50;81.20;;;;;;4984259;28;20442;-47
2022/02/02 23:44:26;;;;;;;17.07;9.63;;;7.50;81.30;;;;;;4984347;28;20699;-47
2022/02/02 23:46:56;;;;;;;15.43;10.27;;;7.50;81.40;;;;;;4980386;28;21196;-47
2022/02/02 23:49:35;;;;;;;20.67;10.67;;;7.50;81.40;;;;;;4980908;28;20477;-47
2022/02/02 23:52:04;;;;;;;18.63;10.27;;;7.50;81.40;;;;;;4980616;28;20457;-47
2022/02/02 23:54:34;;;;;;;18.83;10.00;;;7.50;81.30;;;;;;4981960;28;20556;-47
